sensor_id;sensor_type;location;lat;lon;timestamp;pressure;altitude;pressure_sealevel;temperature;humidity
43071;BME280;36278;47.952;21.714;2022-10-16T00:00:17;100993.66;;;10.85;100.00
43071;BME280;36278;47.952;21.714;2022-10-16T00:02:42;100996.09;;;10.88;100.00
43071;BME280;36278;47.952;21.714;2022-10-16T00:05:08;100989.94;;;10.87;100.00
43071;BME280;36278;47.952;21.714;2022-10-16T00:07:34;100995.53;;;10.83;100.00
43071;BME280;36278;47.952;21.714;2022-10-16T00:09:59;100995.63;;;10.81;100.00
43071;BME280;36278;47.952;21.714;2022-10-16T00:12:24;100991.41;;;10.79;100.00
43071;BME280;36278;47.952;21.714;2022-10-16T00:14:50;100998.41;;;10.80;100.00
43071;BME280;36278;47.952;21.714;2022-10-16T00:17:15;100997.25;;;10.84;100.00
43071;BME280;36278;47.952;21.714;2022-10-16T00:19:41;100999.06;;;10.83;100.00
43071;BME280;36278;47.952;21.714;2022-10-16T00:22:06;101012.81;;;10.76;100.00
43071;BME280;36278;47.952;21.714;2022-10-16T00:24:32;101009.31;;;10.75;100.00
43071;BME280;36278;47.952;21.714;2022-10-16T00:26:57;101011.09;;;10.75;100.00
43071;BME280;36278;47.952;21.714;2022-10-16T00:29:23;101006.34;;;10.80;100.00
43071;BME280;36278;47.952;21.714;2022-10-16T00:31:48;101010.50;;;10.84;100.00
43071;BME280;36278;47.952;21.714;2022-10-16T00:34:13;101004.94;;;10.74;100.00
43071;BME280;36278;47.952;21.714;2022-10-16T00:36:39;101005.88;;;10.73;100.00
43071;BME280;36278;47.952;21.714;2022-10-16T00:39:04;101008.44;;;10.75;100.00
43071;BME280;36278;47.952;21.714;2022-10-16T00:41:31;101012.88;;;10.74;100.00
43071;BME280;36278;47.952;21.714;2022-10-16T00:43:58;101018.28;;;10.73;100.00
43071;BME280;36278;47.952;21.714;2022-10-16T00:49:05;101022.03;;;10.56;100.00
43071;BME280;36278;47.952;21.714;2022-10-16T00:51:36;101037.09;;;10.55;100.00
43071;BME280;36278;47.952;21.714;2022-10-16T00:54:04;101035.28;;;10.56;100.00
43071;BME280;36278;47.952;21.714;2022-10-16T00:56:33;101034.34;;;10.57;100.00
43071;BME280;36278;47.952;21.714;2022-10-16T00:58:59;101030.66;;;10.59;100.00
43071;BME280;36278;47.952;21.714;2022-10-16T01:01:26;101029.81;;;10.59;100.00
43071;BME280;36278;47.952;21.714;2022-10-16T01:03:52;101031.88;;;10.54;100.00
43071;BME280;36278;47.952;21.714;2022-10-16T01:06:51;101037.09;;;10.55;100.00
43071;BME280;36278;47.952;21.714;2022-10-16T01:10:52;101040.78;;;10.53;100.00
43071;BME280;36278;47.952;21.714;2022-10-16T01:13:26;101045.25;;;10.52;100.00
43071;BME280;36278;47.952;21.714;2022-10-16T01:15:59;101050.81;;;10.48;100.00
43071;BME280;36278;47.952;21.714;2022-10-16T01:21:29;101047.91;;;10.38;100.00
43071;BME280;36278;47.952;21.714;2022-10-16T01:24:16;101045.16;;;10.39;100.00
43071;BME280;36278;47.952;21.714;2022-10-16T01:29:39;101052.63;;;10.33;100.00
43071;BME280;36278;47.952;21.714;2022-10-16T01:32:17;101043.38;;;10.26;100.00
43071;BME280;36278;47.952;21.714;2022-10-16T01:34:49;101062.94;;;10.37;100.00
43071;BME280;36278;47.952;21.714;2022-10-16T01:37:28;101052.47;;;10.36;100.00
43071;BME280;36278;47.952;21.714;2022-10-16T01:39:59;101058.78;;;10.33;100.00
43071;BME280;36278;47.952;21.714;2022-10-16T01:42:30;101056.22;;;10.32;100.00
43071;BME280;36278;47.952;21.714;2022-10-16T01:44:59;101056.59;;;10.26;100.00
43071;BME280;36278;47.952;21.714;2022-10-16T01:47:27;101053.31;;;10.22;100.00
43071;BME280;36278;47.952;21.714;2022-10-16T01:49:56;101060.38;;;10.22;100.00
43071;BME280;36278;47.952;21.714;2022-10-16T01:52:26;101057.84;;;10.20;100.00
43071;BME280;36278;47.952;21.714;2022-10-16T01:54:54;101058.00;;;10.17;100.00
43071;BME280;36278;47.952;21.714;2022-10-16T01:57:24;101059.78;;;10.17;100.00
43071;BME280;36278;47.952;21.714;2022-10-16T01:59:54;101055.66;;;10.13;100.00
43071;BME280;36278;47.952;21.714;2022-10-16T02:02:22;101053.97;;;10.11;100.00
43071;BME280;36278;47.952;21.714;2022-10-16T02:05:02;101068.03;;;10.12;100.00
43071;BME280;36278;47.952;21.714;2022-10-16T02:07:28;101066.81;;;10.03;100.00
43071;BME280;36278;47.952;21.714;2022-10-16T02:09:54;101070.69;;;9.98;100.00
43071;BME280;36278;47.952;21.714;2022-10-16T02:12:28;101069.84;;;9.97;100.00
43071;BME280;36278;47.952;21.714;2022-10-16T02:14:56;101067.19;;;9.97;100.00
43071;BME280;36278;47.952;21.714;2022-10-16T02:17:22;101079.28;;;10.01;100.00
43071;BME280;36278;47.952;21.714;2022-10-16T02:19:49;101076.47;;;10.04;100.00
43071;BME280;36278;47.952;21.714;2022-10-16T02:22:24;101081.06;;;10.01;100.00
43071;BME280;36278;47.952;21.714;2022-10-16T02:25:17;101089.22;;;9.98;100.00
43071;BME280;36278;47.952;21.714;2022-10-16T02:27:54;101101.00;;;9.92;100.00
43071;BME280;36278;47.952;21.714;2022-10-16T02:32:49;101102.91;;;9.90;100.00
43071;BME280;36278;47.952;21.714;2022-10-16T02:35:17;101093.53;;;9.84;100.00
43071;BME280;36278;47.952;21.714;2022-10-16T02:37:44;101108.41;;;9.87;100.00
43071;BME280;36278;47.952;21.714;2022-10-16T02:40:11;101109.34;;;9.86;100.00
43071;BME280;36278;47.952;21.714;2022-10-16T02:42:39;101112.84;;;9.87;100.00
43071;BME280;36278;47.952;21.714;2022-10-16T02:45:06;101102.91;;;9.90;100.00
43071;BME280;36278;47.952;21.714;2022-10-16T02:47:32;101102.50;;;9.82;100.00
43071;BME280;36278;47.952;21.714;2022-10-16T02:49:58;101085.28;;;9.75;100.00
43071;BME280;36278;47.952;21.714;2022-10-16T02:52:23;101097.88;;;9.71;100.00
43071;BME280;36278;47.952;21.714;2022-10-16T02:54:49;101098.88;;;9.69;100.00
43071;BME280;36278;47.952;21.714;2022-10-16T02:57:14;101096.81;;;9.74;100.00
43071;BME280;36278;47.952;21.714;2022-10-16T02:59:40;101098.03;;;9.68;100.00
43071;BME280;36278;47.952;21.714;2022-10-16T03:02:05;101099.75;;;9.69;100.00
43071;BME280;36278;47.952;21.714;2022-10-16T03:04:31;101100.63;;;9.70;100.00
43071;BME280;36278;47.952;21.714;2022-10-16T03:06:56;101101.63;;;9.67;100.00
43071;BME280;36278;47.952;21.714;2022-10-16T03:09:22;101097.63;;;9.60;100.00
43071;BME280;36278;47.952;21.714;2022-10-16T03:11:47;101109.66;;;9.66;100.00
43071;BME280;36278;47.952;21.714;2022-10-16T03:14:12;101103.88;;;9.59;100.00
43071;BME280;36278;47.952;21.714;2022-10-16T03:16:38;101112.66;;;9.60;100.00
43071;BME280;36278;47.952;21.714;2022-10-16T03:19:03;101117.38;;;9.54;100.00
43071;BME280;36278;47.952;21.714;2022-10-16T03:21:29;101114.66;;;9.56;100.00
43071;BME280;36278;47.952;21.714;2022-10-16T03:23:54;101112.63;;;9.45;100.00
43071;BME280;36278;47.952;21.714;2022-10-16T03:26:20;101119.63;;;9.46;100.00
43071;BME280;36278;47.952;21.714;2022-10-16T03:28:45;101111.94;;;9.42;100.00
43071;BME280;36278;47.952;21.714;2022-10-16T03:31:11;101113.94;;;9.38;100.00
43071;BME280;36278;47.952;21.714;2022-10-16T03:33:36;101121.22;;;9.49;100.00
43071;BME280;36278;47.952;21.714;2022-10-16T03:36:02;101124.22;;;9.43;100.00
43071;BME280;36278;47.952;21.714;2022-10-16T03:38:27;101130.91;;;9.34;100.00
43071;BME280;36278;47.952;21.714;2022-10-16T03:40:53;101135.19;;;9.37;100.00
43071;BME280;36278;47.952;21.714;2022-10-16T03:43:18;101135.09;;;9.38;100.00
43071;BME280;36278;47.952;21.714;2022-10-16T03:45:44;101131.00;;;9.33;100.00
43071;BME280;36278;47.952;21.714;2022-10-16T03:48:09;101138.16;;;9.31;100.00
43071;BME280;36278;47.952;21.714;2022-10-16T03:50:35;101136.53;;;9.28;100.00
43071;BME280;36278;47.952;21.714;2022-10-16T03:53:00;101144.94;;;9.20;100.00
43071;BME280;36278;47.952;21.714;2022-10-16T03:55:25;101143.72;;;9.10;100.00
43071;BME280;36278;47.952;21.714;2022-10-16T03:57:51;101150.88;;;9.08;100.00
43071;BME280;36278;47.952;21.714;2022-10-16T04:00:16;101152.78;;;9.06;100.00
43071;BME280;36278;47.952;21.714;2022-10-16T04:02:42;101155.31;;;9.08;100.00
43071;BME280;36278;47.952;21.714;2022-10-16T04:05:07;101154.19;;;9.12;100.00
43071;BME280;36278;47.952;21.714;2022-10-16T04:07:33;101142.53;;;9.16;100.00
43071;BME280;36278;47.952;21.714;2022-10-16T04:09:58;101145.38;;;9.13;100.00
43071;BME280;36278;47.952;21.714;2022-10-16T04:12:25;101150.03;;;9.08;100.00
43071;BME280;36278;47.952;21.714;2022-10-16T04:14:50;101146.63;;;9.06;100.00
43071;BME280;36278;47.952;21.714;2022-10-16T04:17:16;101142.34;;;9.03;100.00
43071;BME280;36278;47.952;21.714;2022-10-16T04:19:41;101144.84;;;9.06;100.00
43071;BME280;36278;47.952;21.714;2022-10-16T04:22:06;101144.84;;;9.06;100.00
43071;BME280;36278;47.952;21.714;2022-10-16T04:24:32;101140.13;;;9.11;100.00
43071;BME280;36278;47.952;21.714;2022-10-16T04:26:57;101139.13;;;9.14;100.00
43071;BME280;36278;47.952;21.714;2022-10-16T04:29:23;101140.84;;;9.15;100.00
43071;BME280;36278;47.952;21.714;2022-10-16T04:31:48;101147.47;;;9.22;100.00
43071;BME280;36278;47.952;21.714;2022-10-16T04:34:14;101153.34;;;9.27;100.00
43071;BME280;36278;47.952;21.714;2022-10-16T04:36:39;101148.00;;;9.29;100.00
43071;BME280;36278;47.952;21.714;2022-10-16T04:39:04;101149.75;;;9.28;100.00
43071;BME280;36278;47.952;21.714;2022-10-16T04:41:30;101150.22;;;9.20;100.00
43071;BME280;36278;47.952;21.714;2022-10-16T04:43:55;101146.03;;;9.16;100.00
43071;BME280;36278;47.952;21.714;2022-10-16T04:46:21;101141.69;;;9.15;100.00
43071;BME280;36278;47.952;21.714;2022-10-16T04:48:46;101128.28;;;9.03;100.00
43071;BME280;36278;47.952;21.714;2022-10-16T04:51:12;101149.63;;;9.15;100.00
43071;BME280;36278;47.952;21.714;2022-10-16T04:53:37;101146.03;;;9.16;100.00
43071;BME280;36278;47.952;21.714;2022-10-16T04:56:03;101149.34;;;9.20;100.00
43071;BME280;36278;47.952;21.714;2022-10-16T04:58:28;101158.91;;;9.22;100.00
43071;BME280;36278;47.952;21.714;2022-10-16T05:00:54;101157.63;;;9.14;100.00
43071;BME280;36278;47.952;21.714;2022-10-16T05:03:19;101162.56;;;9.20;100.00
43071;BME280;36278;47.952;21.714;2022-10-16T05:05:45;101163.69;;;9.16;100.00
43071;BME280;36278;47.952;21.714;2022-10-16T05:08:15;101157.34;;;9.18;100.00
43071;BME280;36278;47.952;21.714;2022-10-16T05:10:42;101165.13;;;9.21;100.00
43071;BME280;36278;47.952;21.714;2022-10-16T05:13:08;101177.06;;;9.13;100.00
43071;BME280;36278;47.952;21.714;2022-10-16T05:15:33;101172.66;;;9.13;100.00
43071;BME280;36278;47.952;21.714;2022-10-16T05:17:59;101177.75;;;9.16;100.00
43071;BME280;36278;47.952;21.714;2022-10-16T05:20:24;101183.22;;;9.13;100.00
43071;BME280;36278;47.952;21.714;2022-10-16T05:22:50;101183.28;;;9.12;100.00
43071;BME280;36278;47.952;21.714;2022-10-16T05:25:15;101178.78;;;9.14;100.00
43071;BME280;36278;47.952;21.714;2022-10-16T05:27:41;101188.31;;;9.16;100.00
43071;BME280;36278;47.952;21.714;2022-10-16T05:30:07;101200.03;;;9.12;100.00
43071;BME280;36278;47.952;21.714;2022-10-16T05:32:33;101194.97;;;9.08;100.00
43071;BME280;36278;47.952;21.714;2022-10-16T05:34:58;101201.63;;;9.15;100.00
43071;BME280;36278;47.952;21.714;2022-10-16T05:37:25;101204.38;;;9.13;100.00
43071;BME280;36278;47.952;21.714;2022-10-16T05:39:52;101205.63;;;9.22;100.00
43071;BME280;36278;47.952;21.714;2022-10-16T05:42:17;101207.06;;;9.27;100.00
43071;BME280;36278;47.952;21.714;2022-10-16T05:44:44;101209.47;;;9.32;100.00
43071;BME280;36278;47.952;21.714;2022-10-16T05:47:09;101217.91;;;9.39;100.00
43071;BME280;36278;47.952;21.714;2022-10-16T05:49:36;101216.69;;;9.44;100.00
43071;BME280;36278;47.952;21.714;2022-10-16T05:52:01;101210.97;;;9.52;100.00
43071;BME280;36278;47.952;21.714;2022-10-16T05:54:27;101205.78;;;9.50;100.00
43071;BME280;36278;47.952;21.714;2022-10-16T05:56:52;101221.13;;;9.60;100.00
43071;BME280;36278;47.952;21.714;2022-10-16T05:59:18;101229.66;;;9.65;100.00
43071;BME280;36278;47.952;21.714;2022-10-16T06:01:43;101229.41;;;9.69;100.00
43071;BME280;36278;47.952;21.714;2022-10-16T06:04:09;101222.63;;;9.79;100.00
43071;BME280;36278;47.952;21.714;2022-10-16T06:06:34;101224.84;;;9.87;100.00
43071;BME280;36278;47.952;21.714;2022-10-16T06:09:02;101230.63;;;9.94;100.00
43071;BME280;36278;47.952;21.714;2022-10-16T06:11:30;101239.53;;;10.07;100.00
43071;BME280;36278;47.952;21.714;2022-10-16T06:13:59;101237.47;;;10.12;100.00
43071;BME280;36278;47.952;21.714;2022-10-16T06:16:27;101251.66;;;10.27;100.00
43071;BME280;36278;47.952;21.714;2022-10-16T06:18:53;101253.75;;;10.36;100.00
43071;BME280;36278;47.952;21.714;2022-10-16T06:21:21;101253.34;;;10.42;100.00
43071;BME280;36278;47.952;21.714;2022-10-16T06:23:47;101261.63;;;10.52;100.00
43071;BME280;36278;47.952;21.714;2022-10-16T06:26:15;101257.47;;;10.62;100.00
43071;BME280;36278;47.952;21.714;2022-10-16T06:28:41;101259.44;;;10.73;100.00
43071;BME280;36278;47.952;21.714;2022-10-16T06:31:08;101273.56;;;10.87;100.00
43071;BME280;36278;47.952;21.714;2022-10-16T06:33:34;101276.22;;;11.02;99.93
43071;BME280;36278;47.952;21.714;2022-10-16T06:36:02;101272.78;;;11.14;98.50
43071;BME280;36278;47.952;21.714;2022-10-16T06:38:28;101275.44;;;11.28;97.29
43071;BME280;36278;47.952;21.714;2022-10-16T06:40:53;101290.47;;;11.42;97.01
43071;BME280;36278;47.952;21.714;2022-10-16T06:43:19;101288.34;;;11.61;95.50
43071;BME280;36278;47.952;21.714;2022-10-16T06:45:53;101294.47;;;11.76;93.79
43071;BME280;36278;47.952;21.714;2022-10-16T06:48:19;101299.94;;;11.87;93.67
43071;BME280;36278;47.952;21.714;2022-10-16T06:50:55;101303.63;;;11.99;93.58
43071;BME280;36278;47.952;21.714;2022-10-16T06:53:21;101293.44;;;12.05;92.41
43071;BME280;36278;47.952;21.714;2022-10-16T06:55:47;101294.81;;;12.11;92.39
43071;BME280;36278;47.952;21.714;2022-10-16T06:58:12;101309.28;;;12.20;92.47
43071;BME280;36278;47.952;21.714;2022-10-16T07:00:37;101311.66;;;12.24;92.07
43071;BME280;36278;47.952;21.714;2022-10-16T07:03:03;101307.13;;;12.39;91.55
43071;BME280;36278;47.952;21.714;2022-10-16T07:05:28;101307.53;;;12.46;90.66
43071;BME280;36278;47.952;21.714;2022-10-16T07:07:54;101321.16;;;12.54;89.13
43071;BME280;36278;47.952;21.714;2022-10-16T07:10:19;101323.63;;;12.57;89.79
43071;BME280;36278;47.952;21.714;2022-10-16T07:12:45;101324.44;;;12.45;90.54
43071;BME280;36278;47.952;21.714;2022-10-16T07:15:10;101315.44;;;12.60;91.12
43071;BME280;36278;47.952;21.714;2022-10-16T07:17:35;101321.41;;;12.76;89.76
43071;BME280;36278;47.952;21.714;2022-10-16T07:20:01;101325.66;;;12.91;89.28
43071;BME280;36278;47.952;21.714;2022-10-16T07:22:28;101320.03;;;12.96;88.77
43071;BME280;36278;47.952;21.714;2022-10-16T07:24:54;101315.34;;;13.12;87.20
43071;BME280;36278;47.952;21.714;2022-10-16T07:27:19;101320.44;;;13.15;88.30
43071;BME280;36278;47.952;21.714;2022-10-16T07:29:47;101318.22;;;13.22;88.33
43071;BME280;36278;47.952;21.714;2022-10-16T07:32:12;101320.78;;;13.36;87.18
43071;BME280;36278;47.952;21.714;2022-10-16T07:34:38;101313.81;;;13.46;85.78
43071;BME280;36278;47.952;21.714;2022-10-16T07:37:03;101320.72;;;13.62;83.31
43071;BME280;36278;47.952;21.714;2022-10-16T07:39:29;101330.50;;;13.61;84.44
43071;BME280;36278;47.952;21.714;2022-10-16T07:41:54;101329.19;;;13.67;84.91
43071;BME280;36278;47.952;21.714;2022-10-16T07:44:20;101319.78;;;13.74;83.92
43071;BME280;36278;47.952;21.714;2022-10-16T07:46:45;101323.47;;;13.84;84.27
43071;BME280;36278;47.952;21.714;2022-10-16T07:49:11;101328.47;;;13.89;84.01
43071;BME280;36278;47.952;21.714;2022-10-16T07:51:36;101335.69;;;13.99;81.57
43071;BME280;36278;47.952;21.714;2022-10-16T07:54:03;101331.59;;;14.07;81.43
43071;BME280;36278;47.952;21.714;2022-10-16T07:56:30;101328.94;;;14.07;80.85
43071;BME280;36278;47.952;21.714;2022-10-16T07:58:57;101330.88;;;14.05;81.66
43071;BME280;36278;47.952;21.714;2022-10-16T08:01:22;101329.16;;;14.27;78.98
43071;BME280;36278;47.952;21.714;2022-10-16T08:03:50;101342.19;;;14.43;78.83
43071;BME280;36278;47.952;21.714;2022-10-16T08:06:17;101332.78;;;14.26;80.16
43071;BME280;36278;47.952;21.714;2022-10-16T08:08:42;101333.69;;;14.38;80.42
43071;BME280;36278;47.952;21.714;2022-10-16T08:11:08;101332.22;;;14.58;79.57
43071;BME280;36278;47.952;21.714;2022-10-16T08:13:33;101332.97;;;14.71;78.65
43071;BME280;36278;47.952;21.714;2022-10-16T08:15:59;101345.25;;;14.85;78.46
43071;BME280;36278;47.952;21.714;2022-10-16T08:18:25;101352.19;;;14.99;76.78
43071;BME280;36278;47.952;21.714;2022-10-16T08:20:59;101349.59;;;14.86;76.35
43071;BME280;36278;47.952;21.714;2022-10-16T08:23:26;101358.25;;;14.66;76.58
43071;BME280;36278;47.952;21.714;2022-10-16T08:25:52;101358.56;;;14.85;76.65
43071;BME280;36278;47.952;21.714;2022-10-16T08:28:18;101354.00;;;15.09;76.52
43071;BME280;36278;47.952;21.714;2022-10-16T08:30:44;101352.94;;;15.23;75.65
43071;BME280;36278;47.952;21.714;2022-10-16T08:33:10;101355.00;;;15.42;75.20
43071;BME280;36278;47.952;21.714;2022-10-16T08:35:35;101352.56;;;15.50;75.01
43071;BME280;36278;47.952;21.714;2022-10-16T08:38:04;101348.28;;;15.59;73.83
43071;BME280;36278;47.952;21.714;2022-10-16T08:40:32;101356.41;;;15.80;72.28
43071;BME280;36278;47.952;21.714;2022-10-16T08:48:49;101342.97;;;15.81;71.17
43071;BME280;36278;47.952;21.714;2022-10-16T08:51:20;101349.19;;;16.03;70.96
43071;BME280;36278;47.952;21.714;2022-10-16T08:53:54;101356.66;;;16.31;68.98
43071;BME280;36278;47.952;21.714;2022-10-16T08:56:20;101350.94;;;16.57;66.16
43071;BME280;36278;47.952;21.714;2022-10-16T08:58:46;101346.00;;;16.73;65.30
43071;BME280;36278;47.952;21.714;2022-10-16T09:01:16;101348.19;;;16.79;65.09
43071;BME280;36278;47.952;21.714;2022-10-16T09:04:07;101351.09;;;16.97;65.05
43071;BME280;36278;47.952;21.714;2022-10-16T09:06:54;101347.28;;;17.20;65.07
43071;BME280;36278;47.952;21.714;2022-10-16T09:09:43;101349.88;;;17.41;64.32
43071;BME280;36278;47.952;21.714;2022-10-16T09:12:19;101362.75;;;17.47;63.97
43071;BME280;36278;47.952;21.714;2022-10-16T09:25:28;101368.41;;;17.84;60.66
43071;BME280;36278;47.952;21.714;2022-10-16T09:27:54;101361.28;;;17.33;61.17
43071;BME280;36278;47.952;21.714;2022-10-16T09:30:20;101364.91;;;17.63;61.32
43071;BME280;36278;47.952;21.714;2022-10-16T09:32:50;101367.28;;;17.97;59.97
43071;BME280;36278;47.952;21.714;2022-10-16T09:35:19;101367.06;;;18.19;58.15
43071;BME280;36278;47.952;21.714;2022-10-16T09:37:48;101364.50;;;18.27;57.74
43071;BME280;36278;47.952;21.714;2022-10-16T09:40:35;101364.94;;;18.42;58.08
43071;BME280;36278;47.952;21.714;2022-10-16T09:48:20;101372.69;;;18.64;57.29
43071;BME280;36278;47.952;21.714;2022-10-16T09:51:05;101375.28;;;18.66;57.23
43071;BME280;36278;47.952;21.714;2022-10-16T09:53:40;101374.84;;;18.70;56.86
43071;BME280;36278;47.952;21.714;2022-10-16T09:56:06;101368.63;;;18.51;57.60
43071;BME280;36278;47.952;21.714;2022-10-16T09:58:32;101380.88;;;18.53;58.44
43071;BME280;36278;47.952;21.714;2022-10-16T10:00:59;101373.81;;;18.62;57.36
43071;BME280;36278;47.952;21.714;2022-10-16T10:03:37;101378.22;;;18.53;56.88
43071;BME280;36278;47.952;21.714;2022-10-16T10:06:25;101371.72;;;18.46;56.38
43071;BME280;36278;47.952;21.714;2022-10-16T10:08:59;101372.41;;;18.48;58.10
43071;BME280;36278;47.952;21.714;2022-10-16T10:14:22;101368.19;;;18.45;57.42
43071;BME280;36278;47.952;21.714;2022-10-16T10:16:48;101361.81;;;18.46;56.53
43071;BME280;36278;47.952;21.714;2022-10-16T10:19:16;101369.88;;;18.46;57.20
43071;BME280;36278;47.952;21.714;2022-10-16T10:21:42;101359.56;;;18.52;56.80
43071;BME280;36278;47.952;21.714;2022-10-16T10:24:11;101367.91;;;18.58;57.03
43071;BME280;36278;47.952;21.714;2022-10-16T10:26:37;101360.56;;;18.60;57.55
43071;BME280;36278;47.952;21.714;2022-10-16T10:29:17;101368.47;;;18.71;56.94
43071;BME280;36278;47.952;21.714;2022-10-16T10:31:52;101367.75;;;18.79;56.70
43071;BME280;36278;47.952;21.714;2022-10-16T10:39:55;101358.59;;;18.72;55.79
43071;BME280;36278;47.952;21.714;2022-10-16T10:42:51;101355.72;;;18.93;56.19
43071;BME280;36278;47.952;21.714;2022-10-16T10:45:38;101357.38;;;19.03;55.49
43071;BME280;36278;47.952;21.714;2022-10-16T10:48:38;101352.81;;;19.14;55.30
43071;BME280;36278;47.952;21.714;2022-10-16T10:51:13;101355.06;;;19.28;55.25
43071;BME280;36278;47.952;21.714;2022-10-16T10:53:42;101365.53;;;19.21;54.49
43071;BME280;36278;47.952;21.714;2022-10-16T10:56:42;101358.31;;;19.31;54.85
43071;BME280;36278;47.952;21.714;2022-10-16T11:01:55;101351.56;;;19.55;54.49
43071;BME280;36278;47.952;21.714;2022-10-16T11:07:21;101343.81;;;19.42;53.97
43071;BME280;36278;47.952;21.714;2022-10-16T11:10:01;101347.03;;;19.55;54.78
43071;BME280;36278;47.952;21.714;2022-10-16T11:12:38;101343.50;;;19.55;53.81
43071;BME280;36278;47.952;21.714;2022-10-16T11:15:14;101336.97;;;19.20;54.60
43071;BME280;36278;47.952;21.714;2022-10-16T11:18:00;101342.53;;;19.09;54.67
43071;BME280;36278;47.952;21.714;2022-10-16T11:20:40;101335.84;;;19.23;54.77
43071;BME280;36278;47.952;21.714;2022-10-16T11:25:39;101333.28;;;19.31;54.55
43071;BME280;36278;47.952;21.714;2022-10-16T11:28:24;101321.03;;;19.46;54.28
43071;BME280;36278;47.952;21.714;2022-10-16T11:30:53;101330.91;;;19.55;54.26
43071;BME280;36278;47.952;21.714;2022-10-16T11:36:43;101318.31;;;19.56;53.34
43071;BME280;36278;47.952;21.714;2022-10-16T11:39:29;101322.41;;;19.87;53.24
43071;BME280;36278;47.952;21.714;2022-10-16T11:42:01;101328.31;;;20.09;53.03
43071;BME280;36278;47.952;21.714;2022-10-16T11:47:48;101322.31;;;19.97;53.02
43071;BME280;36278;47.952;21.714;2022-10-16T11:50:39;101322.41;;;19.87;52.83
43071;BME280;36278;47.952;21.714;2022-10-16T11:55:58;101314.72;;;20.46;51.86
43071;BME280;36278;47.952;21.714;2022-10-16T11:58:41;101322.81;;;20.46;51.44
43071;BME280;36278;47.952;21.714;2022-10-16T12:04:03;101310.31;;;20.27;51.67
43071;BME280;36278;47.952;21.714;2022-10-16T12:06:37;101308.06;;;20.40;52.06
43071;BME280;36278;47.952;21.714;2022-10-16T12:09:13;101309.69;;;20.51;51.23
43071;BME280;36278;47.952;21.714;2022-10-16T12:11:40;101314.47;;;20.22;52.05
43071;BME280;36278;47.952;21.714;2022-10-16T12:17:22;101307.63;;;20.09;52.12
43071;BME280;36278;47.952;21.714;2022-10-16T12:22:41;101298.38;;;20.65;50.42
43071;BME280;36278;47.952;21.714;2022-10-16T12:25:28;101300.44;;;20.71;49.95
43071;BME280;36278;47.952;21.714;2022-10-16T12:30:28;101301.31;;;20.19;52.03
43071;BME280;36278;47.952;21.714;2022-10-16T12:33:00;101300.78;;;20.33;51.82
43071;BME280;36278;47.952;21.714;2022-10-16T12:35:29;101310.34;;;20.45;51.36
43071;BME280;36278;47.952;21.714;2022-10-16T12:38:12;101303.97;;;20.46;50.57
43071;BME280;36278;47.952;21.714;2022-10-16T12:40:42;101300.00;;;20.84;49.59
43071;BME280;36278;47.952;21.714;2022-10-16T12:45:46;101306.09;;;20.86;49.54
43071;BME280;36278;47.952;21.714;2022-10-16T12:48:21;101313.41;;;20.76;49.53
43071;BME280;36278;47.952;21.714;2022-10-16T12:50:48;101310.03;;;20.48;50.08
43071;BME280;36278;47.952;21.714;2022-10-16T12:53:20;101318.09;;;20.48;50.33
43071;BME280;36278;47.952;21.714;2022-10-16T13:12:54;101323.53;;;21.08;49.91
43071;BME280;36278;47.952;21.714;2022-10-16T13:15:29;101314.50;;;21.17;49.25
43071;BME280;36278;47.952;21.714;2022-10-16T13:18:23;101317.72;;;21.21;49.05
43071;BME280;36278;47.952;21.714;2022-10-16T13:26:52;101323.09;;;21.47;48.12
43071;BME280;36278;47.952;21.714;2022-10-16T13:29:20;101317.66;;;21.89;47.71
43071;BME280;36278;47.952;21.714;2022-10-16T13:31:46;101309.72;;;21.88;47.95
43071;BME280;36278;47.952;21.714;2022-10-16T13:34:17;101318.13;;;21.68;47.54
43071;BME280;36278;47.952;21.714;2022-10-16T13:36:48;101310.38;;;21.81;48.12
43071;BME280;36278;47.952;21.714;2022-10-16T13:39:20;101318.09;;;22.43;46.37
43071;BME280;36278;47.952;21.714;2022-10-16T13:42:04;101318.06;;;22.67;45.93
43071;BME280;36278;47.952;21.714;2022-10-16T13:44:46;101315.69;;;23.44;44.02
43071;BME280;36278;47.952;21.714;2022-10-16T13:47:20;101317.41;;;24.08;42.38
43071;BME280;36278;47.952;21.714;2022-10-16T13:49:46;101317.84;;;24.42;41.34
43071;BME280;36278;47.952;21.714;2022-10-16T13:52:19;101316.16;;;24.41;42.00
43071;BME280;36278;47.952;21.714;2022-10-16T13:54:45;101311.19;;;23.99;42.41
43071;BME280;36278;47.952;21.714;2022-10-16T13:57:14;101322.06;;;23.60;42.87
43071;BME280;36278;47.952;21.714;2022-10-16T13:59:40;101321.16;;;23.28;43.63
43071;BME280;36278;47.952;21.714;2022-10-16T14:02:25;101328.22;;;23.37;43.50
43071;BME280;36278;47.952;21.714;2022-10-16T14:04:52;101338.66;;;23.01;44.35
43071;BME280;36278;47.952;21.714;2022-10-16T14:07:27;101328.72;;;22.53;44.86
43071;BME280;36278;47.952;21.714;2022-10-16T14:09:54;101325.81;;;22.14;46.21
43071;BME280;36278;47.952;21.714;2022-10-16T14:12:21;101323.91;;;21.90;46.58
43071;BME280;36278;47.952;21.714;2022-10-16T14:14:49;101329.09;;;21.67;46.82
43071;BME280;36278;47.952;21.714;2022-10-16T14:17:22;101323.16;;;21.63;47.66
43071;BME280;36278;47.952;21.714;2022-10-16T14:19:51;101320.16;;;21.32;49.09
43071;BME280;36278;47.952;21.714;2022-10-16T14:22:36;101319.59;;;21.20;48.05
43071;BME280;36278;47.952;21.714;2022-10-16T14:25:24;101328.75;;;21.02;49.26